Impacts TAF Board INFO
FOR SITUATIONAL AWARENESS. NOT TO BE USED FOR FLIGHT PLANNING PURPOSES.
IDs:

KMCO - Orlando Intl, FL, US

Issued at 0856 UTC 23 May 2018
Updated at 1058 UTC 23 May 2018
Potential Impact None Slight Moderate High
Time<<24/11Z 24/12Z 24/13Z 24/14Z 24/15Z 24/16Z 24/17Z 24/18Z 24/19Z 24/20Z 24/21Z 24/22Z 24/23Z
Type PRVL
VIS >6
CIG 150
Cover BKN
FltCat VFR
WX --
WDir 100
WSpd 6
WGst --

Raw TAF
KMCO 230856Z 2309/2412 09003KT P6SM SKC
  FM231400 13006KT P6SM SCT025 SCT100 BKN250
  FM231800 10009KT P6SM VCSH BKN035 BKN050
  TEMPO 2319/2322 3SM SHRA BKN025
  FM240000 10006KT P6SM FEW045 SCT080 BKN150


METAR Board
Radar Display
Forecast Discussion

FOR SITUATIONAL AWARENESS. NOT TO BE USED FOR FLIGHT PLANNING PURPOSES.